Time;durP1;ratioP1;P1;durP2;ratioP2;P2;SDS_P1;SDS_P2;PMS_P1;PMS_P2;Temp;Humidity;BMP_temperature;BMP_pressure;BME280_temperature;BME280_humidity;BME280_pressure;Samples;Min_cycle;Max_cycle;Signal;HPM_P1;HPM_P2
2022/02/16 00:00:20;;;;;;;2.70;1.13;;;6.30;98.60;;;;;;5023832;28;20231;-86
2022/02/16 00:02:46;;;;;;;3.47;1.23;;;6.60;98.80;;;;;;5022251;28;20214;-87
2022/02/16 00:05:12;;;;;;;2.77;1.13;;;5.90;98.70;;;;;;5032324;28;20185;-88
2022/02/16 00:07:41;;;;;;;2.35;1.30;;;6.20;99.30;;;;;;5035982;28;20228;-87
2022/02/16 00:10:09;;;;;;;1.65;1.42;;;6.40;99.00;;;;;;5021293;28;20216;-87
2022/02/16 00:12:35;;;;;;;2.05;1.33;;;6.20;99.00;;;;;;5026896;28;20269;-86
2022/02/16 00:15:00;;;;;;;3.23;1.57;;;6.40;99.00;;;;;;5039446;28;20760;-88
2022/02/16 00:17:26;;;;;;;1.97;1.43;;;6.40;99.20;;;;;;5033895;28;20219;-85
2022/02/16 00:19:51;;;;;;;4.97;1.20;;;6.00;99.20;;;;;;5028490;28;20201;-86
2022/02/16 00:22:17;;;;;;;4.10;1.40;;;6.10;99.40;;;;;;5024404;28;20187;-86
2022/02/16 00:24:42;;;;;;;1.40;1.13;;;6.00;99.40;;;;;;5028777;28;20185;-85
2022/02/16 00:27:08;;;;;;;1.43;1.10;;;6.10;99.20;;;;;;5035746;28;20588;-86
2022/02/16 00:29:33;;;;;;;2.40;1.23;;;6.40;99.40;;;;;;5031805;28;20971;-85
2022/02/16 00:31:59;;;;;;;3.07;1.73;;;5.80;99.20;;;;;;5029503;28;20187;-86
2022/02/16 00:34:24;;;;;;;1.33;1.23;;;6.00;99.60;;;;;;5033614;28;20944;-86
2022/02/16 00:36:50;;;;;;;1.63;1.10;;;5.70;99.40;;;;;;5038330;28;20231;-86
2022/02/16 00:39:16;;;;;;;2.73;1.43;;;5.80;99.20;;;;;;5035278;28;20200;-86
2022/02/16 00:41:41;;;;;;;1.30;1.20;;;6.40;99.60;;;;;;5035886;28;20285;-87
2022/02/16 00:44:07;;;;;;;1.87;1.30;;;6.50;99.60;;;;;;5039225;28;20597;-87
2022/02/16 00:46:32;;;;;;;2.97;1.30;;;6.00;99.30;;;;;;5033960;28;20596;-87
2022/02/16 00:48:58;;;;;;;1.53;1.17;;;6.10;99.40;;;;;;5033587;28;20185;-87
2022/02/16 00:51:23;;;;;;;1.53;1.20;;;6.20;99.40;;;;;;5039437;28;21220;-87
2022/02/16 00:53:49;;;;;;;3.73;1.53;;;6.00;99.20;;;;;;5031344;28;20189;-86
2022/02/16 00:56:15;;;;;;;1.30;1.20;;;6.40;99.40;;;;;;5026191;28;20214;-86
2022/02/16 00:58:41;;;;;;;3.63;1.37;;;6.10;99.10;;;;;;5026469;28;20549;-86
2022/02/16 01:01:06;;;;;;;2.47;1.10;;;6.40;99.20;;;;;;5020970;28;20189;-87
2022/02/16 01:03:32;;;;;;;1.37;1.27;;;6.70;99.20;;;;;;5009886;28;20656;-87
2022/02/16 01:05:58;;;;;;;1.40;1.30;;;6.40;98.60;;;;;;5025951;28;20344;-87
2022/02/16 01:08:23;;;;;;;1.90;1.20;;;6.20;98.80;;;;;;5034120;28;20186;-86
2022/02/16 01:10:50;;;;;;;1.13;1.00;;;6.50;99.10;;;;;;5037203;28;20195;-86
2022/02/16 01:13:15;;;;;;;2.70;1.20;;;6.30;99.00;;;;;;5024792;28;20190;-86
2022/02/16 01:15:41;;;;;;;1.67;1.10;;;6.80;99.20;;;;;;5024456;28;20186;-86
2022/02/16 01:18:07;;;;;;;1.37;1.20;;;6.50;98.80;;;;;;5027868;28;20465;-87
2022/02/16 01:20:32;;;;;;;1.97;1.20;;;6.00;98.70;;;;;;5025790;28;20558;-86
2022/02/16 01:22:59;;;;;;;2.23;1.47;;;7.00;99.10;;;;;;5024677;28;20240;-87
2022/02/16 01:25:24;;;;;;;1.83;1.25;;;6.50;98.60;;;;;;5036992;28;20188;-86
2022/02/16 01:27:50;;;;;;;1.40;1.30;;;6.80;98.90;;;;;;5036717;28;20208;-86
2022/02/16 01:30:15;;;;;;;1.40;1.10;;;7.10;99.00;;;;;;5018837;28;20242;-86
2022/02/16 01:32:41;;;;;;;1.70;1.27;;;6.70;98.90;;;;;;5026740;28;20287;-86
2022/02/16 01:35:07;;;;;;;3.20;1.20;;;6.80;98.90;;;;;;5038864;28;20178;-86
2022/02/16 01:37:32;;;;;;;1.30;1.20;;;6.70;99.00;;;;;;5032418;28;20205;-87
2022/02/16 01:39:58;;;;;;;2.40;1.03;;;6.90;99.00;;;;;;5038423;28;20804;-86
2022/02/16 01:42:24;;;;;;;1.77;1.13;;;6.80;98.90;;;;;;5029006;28;20428;-86
2022/02/16 01:44:50;;;;;;;4.20;1.07;;;6.80;99.00;;;;;;5034625;28;20193;-86
2022/02/16 01:47:15;;;;;;;1.33;0.98;;;6.90;99.00;;;;;;5038338;28;20217;-87
2022/02/16 01:49:41;;;;;;;3.30;1.07;;;7.20;99.00;;;;;;5036708;28;20256;-86
2022/02/16 01:52:08;;;;;;;1.92;1.17;;;7.10;98.90;;;;;;5039256;28;20414;-86
2022/02/16 01:54:34;;;;;;;4.75;1.13;;;6.90;98.60;;;;;;5045434;28;20181;-86
2022/02/16 01:57:00;;;;;;;3.43;1.17;;;6.80;98.50;;;;;;5043606;28;20216;-88
2022/02/16 01:59:26;;;;;;;2.42;1.30;;;7.00;98.70;;;;;;5055884;28;20189;-87
2022/02/16 02:01:52;;;;;;;2.17;1.30;;;7.00;98.80;;;;;;5041357;28;20285;-87
2022/02/16 02:04:20;;;;;;;4.57;1.17;;;6.90;98.80;;;;;;5039268;28;20197;-87
2022/02/16 02:06:46;;;;;;;1.33;1.13;;;7.30;99.00;;;;;;5033064;28;20437;-88
2022/02/16 02:09:12;;;;;;;1.60;1.10;;;7.30;98.80;;;;;;5037456;28;20191;-87
2022/02/16 02:11:38;;;;;;;3.10;1.40;;;7.30;98.90;;;;;;5037016;28;20724;-87
2022/02/16 02:14:05;;;;;;;3.17;1.40;;;7.30;98.90;;;;;;5032408;28;20195;-87
2022/02/16 02:16:31;;;;;;;1.42;1.33;;;7.40;98.80;;;;;;5031225;28;21002;-85
2022/02/16 02:18:58;;;;;;;2.03;1.10;;;6.80;98.60;;;;;;5020578;28;20206;-86
2022/02/16 02:21:24;;;;;;;1.52;1.00;;;7.30;98.60;;;;;;5038116;28;20531;-87
2022/02/16 02:23:50;;;;;;;2.40;1.10;;;7.30;98.60;;;;;;5032511;28;20310;-87
2022/02/16 02:26:17;;;;;;;1.35;1.25;;;6.70;98.40;;;;;;5029708;28;20483;-88
2022/02/16 02:28:44;;;;;;;2.38;1.73;;;7.10;98.50;;;;;;5038200;28;20193;-88
2022/02/16 02:31:10;;;;;;;1.15;1.00;;;6.80;98.30;;;;;;5027872;28;20201;-88
2022/02/16 02:33:38;;;;;;;2.93;1.40;;;6.70;98.30;;;;;;5028751;28;20270;-87
2022/02/16 02:36:06;;;;;;;3.00;1.13;;;6.70;98.20;;;;;;5042968;28;20185;-87
2022/02/16 02:38:35;;;;;;;2.15;1.15;;;6.90;98.20;;;;;;5057335;28;20379;-88
2022/02/16 02:41:03;;;;;;;3.15;1.40;;;6.80;98.30;;;;;;5034366;28;20183;-87
2022/02/16 02:43:31;;;;;;;1.20;1.10;;;7.00;98.20;;;;;;5029539;28;20174;-88
2022/02/16 02:45:57;;;;;;;2.88;1.60;;;7.30;98.60;;;;;;5032003;28;20222;-88
2022/02/16 02:48:24;;;;;;;2.03;1.02;;;6.80;98.30;;;;;;5035824;28;20183;-86
2022/02/16 02:50:51;;;;;;;1.48;0.93;;;7.30;98.50;;;;;;5038892;28;20190;-86
2022/02/16 02:53:17;;;;;;;2.90;1.13;;;7.50;98.70;;;;;;5034106;28;20241;-86
2022/02/16 02:55:42;;;;;;;2.10;1.00;;;7.30;98.50;;;;;;5029697;28;20562;-87
2022/02/16 02:58:08;;;;;;;0.93;0.83;;;7.00;98.50;;;;;;5029844;28;20488;-87
2022/02/16 03:00:34;;;;;;;1.57;1.07;;;7.20;98.70;;;;;;5025239;28;20187;-87
2022/02/16 03:02:59;;;;;;;4.40;2.30;;;7.00;98.60;;;;;;5021265;28;20269;-87
2022/02/16 03:05:25;;;;;;;3.27;1.00;;;7.10;98.70;;;;;;5032514;28;20190;-88
2022/02/16 03:07:51;;;;;;;1.60;1.10;;;7.00;98.70;;;;;;5033353;28;20207;-87
2022/02/16 03:10:17;;;;;;;1.90;0.98;;;7.00;99.00;;;;;;5046151;28;20166;-86
2022/02/16 03:12:43;;;;;;;1.50;1.10;;;7.00;99.00;;;;;;5027064;28;20638;-87
2022/02/16 03:15:09;;;;;;;1.77;0.87;;;6.90;98.90;;;;;;5036811;28;20196;-88
2022/02/16 03:17:34;;;;;;;2.85;1.42;;;6.90;98.90;;;;;;5037850;28;20214;-87
2022/02/16 03:20:00;;;;;;;1.27;0.93;;;7.10;99.00;;;;;;5037512;28;20191;-88
2022/02/16 03:22:25;;;;;;;1.73;1.13;;;7.10;98.90;;;;;;5021881;28;20213;-88
2022/02/16 03:24:51;;;;;;;1.43;1.10;;;7.10;98.90;;;;;;5041171;28;20257;-87
2022/02/16 03:27:16;;;;;;;1.50;1.23;;;7.00;99.00;;;;;;5037552;28;20251;-87
2022/02/16 03:29:42;;;;;;;1.47;1.00;;;6.80;99.00;;;;;;5037463;28;20695;-85
2022/02/16 03:32:08;;;;;;;1.27;1.13;;;7.10;99.10;;;;;;5037341;28;20194;-88
2022/02/16 03:34:33;;;;;;;2.27;1.10;;;7.00;99.10;;;;;;5017641;28;20199;-87
2022/02/16 03:36:59;;;;;;;1.00;0.90;;;7.10;99.20;;;;;;5037855;28;20217;-86
2022/02/16 03:39:24;;;;;;;1.20;0.83;;;6.90;99.10;;;;;;5031408;28;20206;-88
2022/02/16 03:41:50;;;;;;;1.33;0.90;;;6.90;99.30;;;;;;5033067;28;20205;-87
2022/02/16 03:44:16;;;;;;;1.30;0.90;;;7.00;99.30;;;;;;5034447;28;20247;-87
2022/02/16 03:46:45;;;;;;;2.70;1.00;;;7.30;99.40;;;;;;5037511;28;20272;-87
2022/02/16 03:49:11;;;;;;;1.10;0.80;;;7.10;99.20;;;;;;5025356;28;20250;-88
2022/02/16 03:51:36;;;;;;;1.90;0.90;;;7.10;99.00;;;;;;5031747;28;20614;-87
2022/02/16 03:54:02;;;;;;;0.90;0.73;;;7.50;99.30;;;;;;5018495;28;20710;-87
2022/02/16 03:56:28;;;;;;;0.90;0.77;;;7.10;99.00;;;;;;5027616;28;20328;-87
2022/02/16 03:58:53;;;;;;;3.17;0.70;;;6.90;98.80;;;;;;5027426;28;20193;-86
2022/02/16 04:01:19;;;;;;;6.17;1.03;;;7.10;99.00;;;;;;5020752;28;20175;-87
2022/02/16 04:03:44;;;;;;;1.33;0.93;;;7.10;98.80;;;;;;5018890;28;20186;-87
2022/02/16 04:06:10;;;;;;;0.90;0.77;;;7.20;98.80;;;;;;5030933;28;20221;-87
2022/02/16 04:08:36;;;;;;;1.00;0.70;;;7.60;99.00;;;;;;5033085;28;20552;-87
2022/02/16 04:11:02;;;;;;;1.00;0.90;;;7.30;98.80;;;;;;5022589;28;20198;-87
2022/02/16 04:13:28;;;;;;;1.93;0.90;;;7.30;98.80;;;;;;5025699;28;20855;-87
2022/02/16 04:15:53;;;;;;;1.60;1.05;;;7.20;98.90;;;;;;5020960;28;20594;-87
2022/02/16 04:18:19;;;;;;;0.80;0.80;;;7.30;99.00;;;;;;5030926;28;20190;-87
2022/02/16 04:20:44;;;;;;;1.20;0.77;;;7.10;99.20;;;;;;5021637;28;20245;-85
2022/02/16 04:23:10;;;;;;;1.20;1.00;;;7.70;99.00;;;;;;5027992;28;20198;-87
2022/02/16 04:25:36;;;;;;;2.07;1.00;;;7.70;98.90;;;;;;5020407;28;20632;-88
2022/02/16 04:28:04;;;;;;;2.72;1.20;;;7.20;98.80;;;;;;5030146;28;20202;-87
2022/02/16 04:30:31;;;;;;;1.10;0.70;;;7.50;98.90;;;;;;5014806;28;20224;-86
2022/02/16 04:32:56;;;;;;;3.17;0.80;;;7.80;99.00;;;;;;5016354;28;20183;-86
2022/02/16 04:35:22;;;;;;;0.80;0.80;;;7.90;98.90;;;;;;5030258;28;20277;-86
2022/02/16 04:37:47;;;;;;;2.20;0.60;;;7.60;99.00;;;;;;5031248;28;20336;-88
2022/02/16 04:40:13;;;;;;;3.83;1.00;;;7.90;99.20;;;;;;5023291;28;20219;-87
2022/02/16 04:42:39;;;;;;;1.35;0.88;;;7.60;99.10;;;;;;5037202;28;20236;-88
2022/02/16 04:45:05;;;;;;;0.97;0.87;;;7.90;99.20;;;;;;5030328;28;20254;-87
2022/02/16 04:47:30;;;;;;;2.00;0.82;;;7.50;99.20;;;;;;5029652;28;20562;-85
2022/02/16 04:49:56;;;;;;;1.60;0.70;;;7.50;99.20;;;;;;5025847;28;20209;-87
2022/02/16 04:52:21;;;;;;;0.70;0.70;;;7.40;99.30;;;;;;5015504;28;20270;-86
2022/02/16 04:54:47;;;;;;;1.77;1.10;;;7.40;99.30;;;;;;5025766;28;20206;-84
2022/02/16 04:57:13;;;;;;;1.40;0.80;;;7.60;99.50;;;;;;5025874;28;20233;-87
2022/02/16 04:59:39;;;;;;;1.70;0.80;;;7.30;99.40;;;;;;5029856;28;20202;-86
2022/02/16 05:02:04;;;;;;;1.20;0.70;;;7.60;99.50;;;;;;5024841;28;20177;-87
2022/02/16 05:04:30;;;;;;;1.13;0.70;;;7.40;99.50;;;;;;5028636;28;20228;-87
2022/02/16 05:06:55;;;;;;;0.90;0.90;;;7.40;99.50;;;;;;5027657;28;20209;-86
2022/02/16 05:09:21;;;;;;;1.03;0.90;;;7.50;99.70;;;;;;5029608;28;20178;-88
2022/02/16 05:11:46;;;;;;;1.10;0.80;;;7.60;99.60;;;;;;5019231;28;20183;-87
2022/02/16 05:14:12;;;;;;;0.90;0.73;;;7.10;99.50;;;;;;5032805;28;20190;-87
2022/02/16 05:16:38;;;;;;;1.10;0.70;;;7.60;99.70;;;;;;5025870;28;20216;-88
2022/02/16 05:19:03;;;;;;;2.07;1.37;;;7.70;99.90;;;;;;5024069;28;20555;-87
2022/02/16 05:21:29;;;;;;;1.33;1.00;;;7.60;99.90;;;;;;5018958;28;20194;-87
2022/02/16 05:23:54;;;;;;;2.10;0.80;;;7.50;99.80;;;;;;5038112;28;20206;-87
2022/02/16 05:26:20;;;;;;;0.80;0.60;;;7.10;99.90;;;;;;5029834;28;20219;-88
2022/02/16 05:28:45;;;;;;;1.20;0.93;;;7.60;99.90;;;;;;5028469;28;20668;-88
2022/02/16 05:31:11;;;;;;;0.80;0.60;;;7.60;99.90;;;;;;5016405;28;21600;-86
2022/02/16 05:33:37;;;;;;;1.33;0.80;;;7.40;99.90;;;;;;5016181;28;20197;-87
2022/02/16 05:36:04;;;;;;;1.43;1.23;;;7.20;99.90;;;;;;5026929;28;20189;-87
2022/02/16 05:38:29;;;;;;;1.02;0.93;;;7.80;99.90;;;;;;5023549;28;20273;-88
2022/02/16 05:40:55;;;;;;;0.60;0.60;;;7.50;99.90;;;;;;5028362;28;20703;-87
2022/02/16 05:43:21;;;;;;;0.90;0.80;;;7.90;99.90;;;;;;5025721;28;20201;-87
2022/02/16 05:45:47;;;;;;;1.43;0.70;;;8.00;99.90;;;;;;5035768;28;20540;-85
2022/02/16 05:48:20;;;;;;;0.95;0.77;;;7.60;99.90;;;;;;5031212;28;20262;-86
2022/02/16 05:50:49;;;;;;;1.92;0.80;;;7.60;99.90;;;;;;5040226;28;20204;-88
2022/02/16 05:53:15;;;;;;;1.00;0.82;;;7.70;99.90;;;;;;5017639;28;20174;-84
2022/02/16 05:55:41;;;;;;;0.80;0.60;;;7.60;99.90;;;;;;5039382;28;20193;-85
2022/02/16 05:58:06;;;;;;;0.83;0.70;;;7.80;99.90;;;;;;5029308;28;20598;-85
2022/02/16 06:00:32;;;;;;;3.47;0.80;;;7.80;99.90;;;;;;5020154;28;20185;-87
2022/02/16 06:02:57;;;;;;;1.33;0.77;;;7.90;99.90;;;;;;5018945;28;20190;-87
2022/02/16 06:05:23;;;;;;;1.27;1.07;;;7.40;99.90;;;;;;5027264;28;20183;-86
2022/02/16 06:07:48;;;;;;;0.90;0.77;;;7.50;99.90;;;;;;5028411;28;20206;-86
2022/02/16 06:10:14;;;;;;;0.80;0.80;;;7.60;99.90;;;;;;5026565;28;20179;-85
2022/02/16 06:12:41;;;;;;;0.60;0.60;;;7.70;99.90;;;;;;5027892;28;20210;-87
2022/02/16 06:15:08;;;;;;;0.88;0.80;;;7.50;99.90;;;;;;5031106;28;20226;-86
2022/02/16 06:17:33;;;;;;;1.42;0.80;;;7.50;99.90;;;;;;5039879;28;20226;-85
2022/02/16 06:19:59;;;;;;;1.90;1.00;;;7.70;99.90;;;;;;5042493;28;20228;-86
2022/02/16 06:22:25;;;;;;;1.23;1.00;;;7.60;99.90;;;;;;5036931;28;20193;-86
2022/02/16 06:24:50;;;;;;;0.80;0.80;;;7.60;99.90;;;;;;5025895;28;20490;-86
2022/02/16 06:27:16;;;;;;;0.70;0.67;;;8.00;99.90;;;;;;5029506;28;20213;-86
2022/02/16 06:29:41;;;;;;;0.93;0.73;;;7.40;99.90;;;;;;5032415;28;20248;-87
2022/02/16 06:34:57;;;;;;;4.15;1.60;;;7.60;99.90;;;;;;5037936;28;20235;-91
2022/02/16 06:37:23;;;;;;;1.20;0.60;;;6.70;99.90;;;;;;5038004;28;20829;-89
2022/02/16 06:39:49;;;;;;;1.45;0.88;;;7.50;99.90;;;;;;5036853;28;20198;-90
2022/02/16 06:42:14;;;;;;;1.00;0.90;;;7.70;99.90;;;;;;5025922;28;20239;-90
2022/02/16 06:44:40;;;;;;;1.23;0.70;;;8.00;99.90;;;;;;5055058;28;20182;-90
2022/02/16 06:47:06;;;;;;;0.90;0.67;;;7.60;99.90;;;;;;5046052;28;20257;-89
2022/02/16 06:49:31;;;;;;;0.70;0.70;;;7.70;99.90;;;;;;5040849;28;20646;-90
2022/02/16 06:51:57;;;;;;;1.27;0.63;;;8.30;99.90;;;;;;5039421;28;20474;-89
2022/02/16 06:54:22;;;;;;;0.80;0.70;;;6.90;99.90;;;;;;5023463;28;20190;-88
2022/02/16 06:56:48;;;;;;;1.20;0.70;;;7.70;99.90;;;;;;5038526;28;20229;-81
2022/02/16 06:59:13;;;;;;;1.13;0.70;;;7.80;99.90;;;;;;5015588;28;20759;-81
2022/02/16 07:01:39;;;;;;;2.10;1.07;;;8.30;99.90;;;;;;5012571;28;20201;-82
2022/02/16 07:04:05;;;;;;;0.77;0.60;;;8.20;99.90;;;;;;5031934;28;20220;-84
2022/02/16 07:06:31;;;;;;;1.50;0.70;;;8.20;99.90;;;;;;5032784;28;20223;-84
2022/02/16 07:08:57;;;;;;;0.93;0.70;;;8.20;99.90;;;;;;5026913;28;20216;-83
2022/02/16 07:11:23;;;;;;;2.13;0.80;;;8.10;99.90;;;;;;5022421;28;20220;-82
2022/02/16 07:13:48;;;;;;;1.67;0.60;;;8.10;99.90;;;;;;5020920;28;20214;-82
2022/02/16 07:16:14;;;;;;;1.07;0.97;;;8.30;99.90;;;;;;5030796;28;20202;-83
2022/02/16 07:18:40;;;;;;;0.73;0.57;;;8.40;99.90;;;;;;5023755;28;20191;-85
2022/02/16 07:21:08;;;;;;;1.20;0.87;;;7.90;99.90;;;;;;5022062;28;20229;-81
2022/02/16 07:23:35;;;;;;;1.20;0.80;;;8.30;99.90;;;;;;5027082;28;20210;-87
2022/02/16 07:26:00;;;;;;;2.45;0.90;;;7.90;99.90;;;;;;5029882;28;20260;-86
2022/02/16 07:28:26;;;;;;;1.03;0.83;;;7.80;99.90;;;;;;5034294;28;20183;-87
2022/02/16 07:30:51;;;;;;;0.80;0.80;;;7.90;99.90;;;;;;5023683;28;20540;-86
2022/02/16 07:33:17;;;;;;;1.47;0.80;;;7.80;99.90;;;;;;5024803;28;20178;-84
2022/02/16 07:35:43;;;;;;;1.00;0.63;;;8.00;99.90;;;;;;5025805;28;20277;-83
2022/02/16 07:38:08;;;;;;;0.90;0.70;;;7.90;99.90;;;;;;5032089;28;20808;-86
2022/02/16 07:40:34;;;;;;;1.33;0.80;;;8.10;99.90;;;;;;5039162;28;20561;-84
2022/02/16 07:43:00;;;;;;;1.47;1.30;;;7.90;99.90;;;;;;5026363;28;20186;-88
2022/02/16 07:45:25;;;;;;;1.10;1.00;;;7.80;99.90;;;;;;5035139;28;20237;-85
2022/02/16 07:47:51;;;;;;;1.47;1.10;;;8.40;99.90;;;;;;5021045;28;20218;-84
2022/02/16 07:50:17;;;;;;;0.90;0.80;;;7.60;99.90;;;;;;5030644;28;20190;-86
2022/02/16 07:52:42;;;;;;;1.03;0.90;;;7.60;99.90;;;;;;5029823;28;20198;-85
2022/02/16 07:55:08;;;;;;;2.00;1.10;;;7.60;99.90;;;;;;5030014;28;20186;-85
2022/02/16 07:57:34;;;;;;;1.10;1.00;;;7.50;99.90;;;;;;5027616;28;20230;-88
2022/02/16 08:00:00;;;;;;;1.20;0.80;;;7.70;99.90;;;;;;5034591;28;20975;-89
2022/02/16 08:02:25;;;;;;;0.90;0.80;;;7.50;99.90;;;;;;5032488;28;20757;-85
2022/02/16 08:04:51;;;;;;;1.13;1.03;;;7.80;99.90;;;;;;5035793;28;20281;-88
2022/02/16 08:07:16;;;;;;;1.83;0.90;;;8.00;99.90;;;;;;5026752;28;20206;-89
2022/02/16 08:09:42;;;;;;;43.13;28.33;;;7.80;99.90;;;;;;5031973;28;20194;-83
2022/02/16 08:12:08;;;;;;;1.80;0.93;;;7.90;99.90;;;;;;5022423;28;20230;-82
2022/02/16 08:14:33;;;;;;;1.00;0.90;;;7.50;99.90;;;;;;5036593;28;20666;-83
2022/02/16 08:17:03;;;;;;;0.80;0.80;;;7.30;99.90;;;;;;5028547;28;20206;-82
2022/02/16 08:19:29;;;;;;;1.92;1.13;;;7.50;99.90;;;;;;5030485;28;20264;-83
2022/02/16 08:21:56;;;;;;;1.33;0.97;;;7.80;99.90;;;;;;5016825;28;20204;-83
2022/02/16 08:24:22;;;;;;;1.70;1.60;;;8.10;99.90;;;;;;5029175;28;20182;-83
2022/02/16 08:26:48;;;;;;;1.10;1.00;;;7.60;99.90;;;;;;5028586;28;20648;-83
2022/02/16 08:29:16;;;;;;;1.03;0.93;;;8.00;99.90;;;;;;5025992;28;20217;-82
2022/02/16 08:31:42;;;;;;;1.25;0.90;;;7.60;99.90;;;;;;5022149;28;20231;-83
2022/02/16 08:34:09;;;;;;;4.43;1.00;;;7.50;99.90;;;;;;5023924;28;20195;-90
2022/02/16 08:36:35;;;;;;;1.35;1.00;;;7.60;99.90;;;;;;5032832;28;20691;-89
2022/02/16 08:39:00;;;;;;;1.40;1.13;;;8.00;99.90;;;;;;5031025;28;20190;-88
2022/02/16 08:41:26;;;;;;;2.80;1.00;;;9.30;99.90;;;;;;5020818;28;20718;-88
2022/02/16 08:43:52;;;;;;;1.50;1.10;;;7.50;99.90;;;;;;5034167;28;20178;-88
2022/02/16 08:46:17;;;;;;;2.50;1.20;;;7.40;99.90;;;;;;5031500;28;20214;-88
2022/02/16 08:48:43;;;;;;;1.73;1.10;;;8.00;99.90;;;;;;5021115;28;20266;-83
2022/02/16 08:51:10;;;;;;;1.27;0.83;;;7.50;99.90;;;;;;5033845;28;20201;-88
2022/02/16 08:53:36;;;;;;;1.33;1.00;;;7.50;99.90;;;;;;5040324;28;20221;-90
2022/02/16 08:56:02;;;;;;;1.25;1.15;;;7.20;99.90;;;;;;5034803;28;20196;-89
2022/02/16 08:58:28;;;;;;;1.25;1.10;;;7.40;99.90;;;;;;5031039;28;20186;-96
2022/02/16 09:00:55;;;;;;;3.00;1.47;;;7.40;99.90;;;;;;5043284;28;20188;-86
2022/02/16 09:03:21;;;;;;;1.33;1.00;;;7.50;99.90;;;;;;5016968;28;20452;-84
2022/02/16 09:05:47;;;;;;;1.80;1.00;;;7.30;99.90;;;;;;5036707;28;20749;-83
2022/02/16 09:08:12;;;;;;;1.30;0.90;;;7.80;99.90;;;;;;5029988;28;20281;-83
2022/02/16 09:10:38;;;;;;;0.93;0.90;;;7.60;99.90;;;;;;5031154;28;20523;-81
2022/02/16 09:13:04;;;;;;;1.00;0.87;;;7.30;99.90;;;;;;5024282;28;20478;-82
2022/02/16 09:15:29;;;;;;;1.03;0.93;;;7.40;99.90;;;;;;5029437;28;20182;-83
2022/02/16 09:17:56;;;;;;;0.80;0.80;;;7.70;99.90;;;;;;5018650;28;20214;-81
2022/02/16 09:20:23;;;;;;;1.40;1.00;;;7.40;99.90;;;;;;5029072;28;20448;-83
2022/02/16 09:22:48;;;;;;;1.33;1.00;;;8.00;99.90;;;;;;5030910;28;20229;-83
2022/02/16 09:25:14;;;;;;;1.00;0.90;;;7.30;99.90;;;;;;5025513;28;20252;-84
2022/02/16 09:27:40;;;;;;;0.80;0.70;;;7.90;99.90;;;;;;5033372;28;20216;-84
2022/02/16 09:30:06;;;;;;;0.75;0.75;;;7.90;99.90;;;;;;5031031;28;20550;-82
2022/02/16 09:32:32;;;;;;;1.20;0.90;;;7.60;99.90;;;;;;5032825;28;20185;-83
2022/02/16 09:34:57;;;;;;;1.00;0.90;;;7.80;99.90;;;;;;5038164;28;20186;-85
2022/02/16 09:37:24;;;;;;;1.90;1.17;;;7.80;99.90;;;;;;5036268;28;20206;-83
2022/02/16 09:39:51;;;;;;;1.50;0.80;;;8.00;99.90;;;;;;5037885;28;20197;-83
2022/02/16 09:42:17;;;;;;;1.17;0.75;;;8.10;99.90;;;;;;5023013;28;20519;-84
2022/02/16 09:44:56;;;;;;;1.17;0.83;;;7.90;99.90;;;;;;5026438;28;20216;-85
2022/02/16 09:47:22;;;;;;;1.00;0.90;;;7.80;99.90;;;;;;5032833;28;20325;-86
2022/02/16 09:49:48;;;;;;;0.70;0.70;;;7.40;99.90;;;;;;5026757;28;20662;-83
2022/02/16 09:52:14;;;;;;;1.10;0.90;;;8.20;99.90;;;;;;5026530;28;20183;-84
2022/02/16 09:54:40;;;;;;;0.73;0.70;;;8.00;99.90;;;;;;5029994;28;20480;-87
2022/02/16 09:57:06;;;;;;;1.00;0.70;;;8.50;99.90;;;;;;5029484;28;20224;-89
2022/02/16 09:59:34;;;;;;;1.13;0.80;;;7.80;99.90;;;;;;5046387;28;20189;-86
2022/02/16 10:02:11;;;;;;;0.90;0.90;;;8.40;99.90;;;;;;5039827;28;20198;-88
2022/02/16 10:04:37;;;;;;;1.20;0.88;;;8.20;99.90;;;;;;5021789;28;20186;-85
2022/02/16 10:07:25;;;;;;;0.77;0.70;;;7.90;99.90;;;;;;5036191;28;20214;-85
2022/02/16 10:09:52;;;;;;;1.10;0.80;;;8.30;99.90;;;;;;5041637;28;20209;-86
2022/02/16 10:12:17;;;;;;;0.88;0.75;;;8.30;99.90;;;;;;5016545;28;20234;-83
2022/02/16 10:14:44;;;;;;;1.10;0.90;;;8.30;99.90;;;;;;5023534;28;20185;-83
2022/02/16 10:17:19;;;;;;;0.80;0.60;;;8.70;99.90;;;;;;5032114;28;20698;-88
2022/02/16 10:19:52;;;;;;;0.80;0.60;;;8.50;99.90;;;;;;5048964;28;20191;-86
2022/02/16 10:22:19;;;;;;;1.20;0.70;;;8.70;99.90;;;;;;5033248;28;20302;-87
2022/02/16 10:24:46;;;;;;;0.70;0.57;;;8.70;99.90;;;;;;5025855;28;20567;-88
2022/02/16 10:27:12;;;;;;;0.80;0.70;;;8.50;99.90;;;;;;5022715;28;20226;-84
2022/02/16 10:29:40;;;;;;;0.90;0.80;;;8.70;99.90;;;;;;5015365;28;20262;-88
2022/02/16 10:32:06;;;;;;;0.70;0.70;;;9.30;99.90;;;;;;5034917;28;20186;-88
2022/02/16 10:34:53;;;;;;;0.60;0.50;;;8.90;99.90;;;;;;5023252;28;20186;-82
2022/02/16 10:37:21;;;;;;;0.80;0.80;;;9.00;99.90;;;;;;5028031;28;20205;-84
2022/02/16 10:40:00;;;;;;;0.70;0.70;;;8.90;99.90;;;;;;5030054;28;20211;-87
2022/02/16 10:42:26;;;;;;;0.82;0.82;;;9.10;99.90;;;;;;5024462;28;20261;-86
2022/02/16 10:45:10;;;;;;;1.00;0.77;;;9.60;99.90;;;;;;5010268;28;20190;-84
2022/02/16 10:48:01;;;;;;;2.53;1.00;;;9.30;99.90;;;;;;5037204;28;20215;-83
2022/02/16 10:50:47;;;;;;;0.73;0.60;;;9.30;99.90;;;;;;5033273;28;20647;-83
2022/02/16 10:53:14;;;;;;;1.02;0.90;;;9.40;99.90;;;;;;5029667;28;20218;-83
2022/02/16 10:55:43;;;;;;;0.68;0.60;;;9.60;99.90;;;;;;5043794;28;20186;-87
2022/02/16 10:58:23;;;;;;;0.75;0.75;;;9.60;99.90;;;;;;5023339;28;20221;-87
2022/02/16 11:00:51;;;;;;;1.55;0.90;;;10.00;99.90;;;;;;5033727;28;20187;-83
2022/02/16 11:03:33;;;;;;;0.75;0.70;;;10.70;99.90;;;;;;5025662;28;20216;-86
2022/02/16 11:06:01;;;;;;;0.90;0.60;;;10.40;99.90;;;;;;5030492;28;20187;-86
2022/02/16 11:08:30;;;;;;;1.35;1.15;;;10.80;99.90;;;;;;5027845;28;20476;-84
2022/02/16 11:10:56;;;;;;;1.15;1.05;;;11.10;99.90;;;;;;5037623;28;20215;-86
2022/02/16 11:13:26;;;;;;;1.40;0.70;;;11.20;99.90;;;;;;5035770;28;20193;-85
2022/02/16 11:15:52;;;;;;;0.80;0.80;;;11.30;99.90;;;;;;5041176;28;20180;-86
2022/02/16 11:18:23;;;;;;;1.17;0.70;;;11.20;99.90;;;;;;5030217;28;20245;-86
2022/02/16 11:21:17;;;;;;;0.70;0.60;;;10.80;99.90;;;;;;5043039;28;20191;-85
2022/02/16 11:23:52;;;;;;;0.80;0.60;;;10.40;99.90;;;;;;5032889;28;20195;-86
2022/02/16 11:26:43;;;;;;;0.93;0.80;;;11.30;99.90;;;;;;5048266;28;20225;-87
2022/02/16 11:29:27;;;;;;;1.08;0.60;;;11.20;99.90;;;;;;5016825;28;20279;-86
2022/02/16 11:32:13;;;;;;;0.85;0.63;;;10.70;99.90;;;;;;5040901;28;20179;-86
2022/02/16 11:34:40;;;;;;;0.73;0.60;;;11.20;99.90;;;;;;5029027;28;20222;-88
2022/02/16 11:37:08;;;;;;;0.90;0.80;;;11.40;99.90;;;;;;5022745;28;20212;-86
2022/02/16 11:39:43;;;;;;;1.10;0.70;;;11.50;99.90;;;;;;5030104;28;20200;-86
2022/02/16 11:42:16;;;;;;;1.23;0.70;;;11.60;99.90;;;;;;5021812;28;20236;-88
2022/02/16 11:44:51;;;;;;;1.25;0.80;;;11.60;99.90;;;;;;5038978;28;20238;-87
2022/02/16 11:47:35;;;;;;;2.08;0.60;;;11.50;99.90;;;;;;5038211;28;20241;-86
2022/02/16 11:50:10;;;;;;;1.00;0.75;;;11.80;99.90;;;;;;5053197;28;20182;-85
2022/02/16 11:52:38;;;;;;;1.05;0.98;;;12.10;99.90;;;;;;5037001;28;20270;-86
2022/02/16 11:55:21;;;;;;;0.65;0.57;;;11.90;99.90;;;;;;5025005;28;20189;-88
2022/02/16 11:57:55;;;;;;;0.70;0.60;;;11.90;99.90;;;;;;5031113;28;20238;-85
2022/02/16 12:00:26;;;;;;;0.60;0.50;;;11.80;99.90;;;;;;5030181;28;20201;-85
2022/02/16 12:02:55;;;;;;;1.08;0.88;;;11.60;99.90;;;;;;5033462;28;20189;-86
2022/02/16 12:05:53;;;;;;;1.88;0.65;;;12.00;99.90;;;;;;5064432;28;20200;-87
2022/02/16 12:08:24;;;;;;;0.70;0.60;;;11.60;99.90;;;;;;5036832;28;20283;-88
2022/02/16 12:10:51;;;;;;;0.70;0.65;;;11.50;99.90;;;;;;5038859;28;20636;-88
2022/02/16 12:13:26;;;;;;;0.95;0.52;;;11.90;99.90;;;;;;5031476;28;20496;-86
2022/02/16 12:16:00;;;;;;;0.80;0.70;;;11.10;99.90;;;;;;5031907;28;20179;-86
2022/02/16 12:18:26;;;;;;;0.80;0.60;;;11.50;99.90;;;;;;5030670;28;20273;-86
2022/02/16 12:20:52;;;;;;;0.88;0.80;;;11.10;99.90;;;;;;5053153;28;20199;-86
2022/02/16 12:23:17;;;;;;;0.80;0.60;;;12.00;99.90;;;;;;5032089;28;20506;-85
2022/02/16 12:25:43;;;;;;;1.10;0.80;;;11.90;99.90;;;;;;5025409;28;20189;-87
2022/02/16 12:28:09;;;;;;;1.20;0.80;;;12.00;99.90;;;;;;5031855;28;20749;-87
2022/02/16 12:30:40;;;;;;;1.10;0.80;;;11.80;99.90;;;;;;5034006;28;20221;-85
2022/02/16 12:33:23;;;;;;;0.90;0.77;;;11.70;99.90;;;;;;5036140;28;20654;-87
2022/02/16 12:35:49;;;;;;;0.80;0.70;;;11.70;99.90;;;;;;5045019;28;20255;-86
2022/02/16 12:38:24;;;;;;;1.50;1.40;;;12.00;99.90;;;;;;5054748;28;20209;-86
2022/02/16 12:40:50;;;;;;;1.42;0.73;;;12.00;99.90;;;;;;5034930;28;20452;-86
2022/02/16 12:43:16;;;;;;;2.60;1.53;;;12.00;99.90;;;;;;5042529;28;20210;-86
2022/02/16 12:45:42;;;;;;;0.77;0.60;;;11.60;99.90;;;;;;5048802;28;20193;-88
2022/02/16 12:48:10;;;;;;;1.47;0.83;;;11.70;99.90;;;;;;5052899;28;20224;-86
2022/02/16 12:50:36;;;;;;;0.90;0.70;;;12.00;99.90;;;;;;5057807;28;20442;-86
2022/02/16 12:53:07;;;;;;;0.60;0.60;;;11.70;99.90;;;;;;5056369;28;20184;-86
2022/02/16 12:55:46;;;;;;;0.60;0.50;;;12.70;99.90;;;;;;5054875;28;20203;-87
2022/02/16 12:58:15;;;;;;;0.70;0.60;;;11.40;99.90;;;;;;5034717;28;20211;-86